Time;durP1;ratioP1;P1;durP2;ratioP2;P2;SDS_P1;SDS_P2;PMS_P1;PMS_P2;Temp;Humidity;BMP_temperature;BMP_pressure;BME280_temperature;BME280_humidity;BME280_pressure;Samples;Min_cycle;Max_cycle;Signal;HPM_P1;HPM_P2
2021/01/22 00:01:34;;;;;;;7.38;3.08;;;3.30;99.90;;;;;;4964516;28;20530;-68
2021/01/22 00:04:01;;;;;;;6.82;3.30;;;3.30;99.90;;;;;;4963231;28;20138;-69
2021/01/22 00:06:28;;;;;;;13.93;4.47;;;3.30;99.90;;;;;;4965746;28;20050;-69
2021/01/22 00:08:54;;;;;;;6.25;3.25;;;3.30;99.90;;;;;;4964571;28;20066;-72
2021/01/22 00:11:21;;;;;;;4.00;3.00;;;3.20;99.90;;;;;;4963932;28;20051;-70
2021/01/22 00:13:48;;;;;;;18.35;4.00;;;3.20;99.90;;;;;;4962773;28;20522;-69
2021/01/22 00:16:14;;;;;;;11.23;3.15;;;3.20;99.90;;;;;;4961133;28;20502;-69
2021/01/22 00:18:41;;;;;;;14.07;3.85;;;3.20;99.90;;;;;;4974204;28;20441;-75
2021/01/22 00:21:07;;;;;;;5.32;2.88;;;3.20;99.90;;;;;;4961470;28;20781;-71
2021/01/22 00:23:37;;;;;;;6.97;3.72;;;3.20;99.90;;;;;;4966601;28;20043;-71
2021/01/22 00:26:07;;;;;;;3.83;2.85;;;3.20;99.90;;;;;;4963683;28;20070;-70
2021/01/22 00:28:34;;;;;;;6.72;3.53;;;3.20;99.90;;;;;;4961334;28;20070;-69
2021/01/22 00:31:01;;;;;;;4.65;3.03;;;3.20;99.90;;;;;;4966663;28;20073;-68
2021/01/22 00:33:27;;;;;;;8.35;3.08;;;3.20;99.90;;;;;;4963120;28;20046;-71
2021/01/22 00:35:54;;;;;;;4.32;2.83;;;3.30;99.90;;;;;;4965671;28;20047;-68
2021/01/22 00:38:21;;;;;;;6.93;3.25;;;3.30;99.90;;;;;;4962364;28;20070;-74
2021/01/22 00:40:47;;;;;;;4.72;2.35;;;3.40;99.90;;;;;;4963110;28;20789;-71
2021/01/22 00:43:14;;;;;;;7.40;3.63;;;3.50;99.90;;;;;;4964844;28;20515;-74
2021/01/22 00:45:41;;;;;;;7.13;2.72;;;3.60;99.90;;;;;;4963688;28;20073;-75
2021/01/22 00:48:07;;;;;;;3.60;2.33;;;3.60;99.90;;;;;;4963488;28;20612;-71
2021/01/22 00:50:34;;;;;;;7.07;2.88;;;3.60;99.90;;;;;;4967530;28;20116;-68
2021/01/22 00:53:01;;;;;;;5.05;2.40;;;3.60;99.90;;;;;;4959573;28;20142;-67
2021/01/22 00:55:29;;;;;;;3.65;2.42;;;3.60;99.90;;;;;;4965796;28;20098;-74
2021/01/22 00:58:14;;;;;;;7.22;3.00;;;3.70;99.90;;;;;;4964680;28;20092;-70
2021/01/22 01:00:41;;;;;;;10.10;2.83;;;3.70;99.90;;;;;;4962533;28;20061;-72
2021/01/22 01:03:24;;;;;;;6.60;2.88;;;3.70;99.90;;;;;;4963566;28;20050;-69
2021/01/22 01:05:51;;;;;;;8.35;3.58;;;3.70;99.90;;;;;;4962668;28;20054;-67
2021/01/22 01:08:18;;;;;;;6.65;2.38;;;3.70;99.90;;;;;;4969233;28;20471;-70
2021/01/22 01:11:02;;;;;;;4.38;2.30;;;3.70;99.90;;;;;;4959785;28;20506;-68
2021/01/22 01:13:55;;;;;;;6.30;3.80;;;3.60;99.90;;;;;;4974121;28;20158;-66
2021/01/22 01:16:23;;;;;;;7.60;3.38;;;3.60;99.90;;;;;;4960943;28;20042;-69
2021/01/22 01:18:50;;;;;;;4.68;2.55;;;3.60;99.90;;;;;;4965147;28;20055;-67
2021/01/22 01:21:16;;;;;;;9.88;2.95;;;3.60;99.90;;;;;;4962557;28;20058;-73
2021/01/22 01:23:43;;;;;;;5.28;2.70;;;3.60;99.90;;;;;;4963291;28;20435;-71
2021/01/22 01:26:09;;;;;;;3.15;2.28;;;3.60;99.90;;;;;;4959860;28;20133;-68
2021/01/22 01:28:36;;;;;;;6.25;3.47;;;3.70;99.90;;;;;;4965250;28;20121;-68
2021/01/22 01:31:02;;;;;;;3.72;2.20;;;3.70;99.90;;;;;;4961075;28;20078;-70
2021/01/22 01:33:29;;;;;;;6.25;2.45;;;3.70;99.90;;;;;;4966505;28;20495;-68
2021/01/22 01:35:55;;;;;;;5.75;2.70;;;3.70;99.90;;;;;;4962707;28;20514;-68
2021/01/22 01:38:22;;;;;;;4.88;3.03;;;3.70;99.90;;;;;;4955701;28;20059;-69
2021/01/22 01:40:49;;;;;;;6.30;3.00;;;3.70;99.90;;;;;;4962668;28;20601;-72
2021/01/22 01:43:15;;;;;;;11.68;2.20;;;3.70;99.90;;;;;;4962727;28;20066;-69
2021/01/22 01:45:41;;;;;;;7.80;2.60;;;3.70;99.90;;;;;;4968434;28;20051;-69
2021/01/22 01:48:10;;;;;;;6.70;2.45;;;3.70;99.90;;;;;;4961172;28;20138;-69
2021/01/22 01:50:39;;;;;;;6.70;2.28;;;3.60;99.90;;;;;;4967559;28;20053;-71
2021/01/22 01:53:06;;;;;;;3.72;2.35;;;3.60;99.90;;;;;;4962449;28;20053;-68
2021/01/22 01:55:34;;;;;;;4.88;2.33;;;3.60;99.90;;;;;;4971586;28;20063;-69
2021/01/22 01:58:05;;;;;;;5.90;3.15;;;3.60;99.90;;;;;;4959713;28;20474;-68
2021/01/22 02:00:33;;;;;;;9.13;3.03;;;3.60;99.90;;;;;;4967659;28;20422;-66
2021/01/22 02:03:00;;;;;;;3.83;2.35;;;3.60;99.90;;;;;;4960210;28;20042;-66
2021/01/22 02:05:28;;;;;;;4.15;2.47;;;3.60;99.90;;;;;;4961459;28;20062;-70
2021/01/22 02:07:55;;;;;;;4.15;2.83;;;3.50;99.90;;;;;;4965322;28;20059;-70
2021/01/22 02:10:22;;;;;;;7.85;2.90;;;3.50;99.90;;;;;;4960349;28;20051;-67
2021/01/22 02:12:51;;;;;;;9.82;2.35;;;3.50;99.90;;;;;;4962416;28;20474;-70
2021/01/22 02:15:18;;;;;;;6.90;2.75;;;3.50;99.90;;;;;;4961204;28;20141;-72
2021/01/22 02:17:46;;;;;;;4.72;2.10;;;3.50;99.90;;;;;;4961404;28;20458;-70
2021/01/22 02:20:48;;;;;;;4.53;2.72;;;3.50;99.90;;;;;;4960813;28;20128;-69
2021/01/22 02:23:17;;;;;;;5.13;2.28;;;3.50;99.90;;;;;;4954049;28;20050;-71
2021/01/22 02:25:44;;;;;;;5.50;2.10;;;3.50;99.90;;;;;;4958979;28;20602;-71
2021/01/22 02:28:13;;;;;;;5.70;3.20;;;3.50;99.90;;;;;;4960005;28;20105;-73
2021/01/22 02:30:44;;;;;;;4.60;2.22;;;3.50;99.90;;;;;;4960677;28;20434;-69
2021/01/22 02:33:13;;;;;;;5.95;2.30;;;3.50;99.90;;;;;;4961667;28;20538;-73
2021/01/22 02:35:40;;;;;;;7.40;3.47;;;3.50;99.90;;;;;;4963685;28;20067;-69
2021/01/22 02:38:08;;;;;;;6.82;2.45;;;3.50;99.90;;;;;;4968159;28;20109;-71
2021/01/22 02:40:36;;;;;;;7.28;2.33;;;3.50;99.90;;;;;;4968485;28;20055;-69
2021/01/22 02:43:06;;;;;;;6.82;2.22;;;3.60;99.90;;;;;;4969705;28;20454;-67
2021/01/22 02:45:33;;;;;;;4.13;2.00;;;3.60;99.90;;;;;;4963436;28;20046;-70
2021/01/22 02:48:00;;;;;;;6.88;2.10;;;3.60;99.90;;;;;;4965860;28;20057;-68
2021/01/22 02:50:34;;;;;;;4.13;1.48;;;3.70;99.90;;;;;;4969022;28;20058;-70
2021/01/22 02:53:05;;;;;;;7.03;3.47;;;3.70;99.90;;;;;;4965096;28;20054;-66
2021/01/22 02:55:33;;;;;;;;;;;3.70;99.90;;;;;;4973857;28;20054;-66
2021/01/22 02:58:03;;;;;;;5.28;2.25;;;3.70;99.90;;;;;;4966939;28;20562;-67
2021/01/22 03:00:38;;;;;;;6.82;1.88;;;3.70;99.90;;;;;;4971174;28;20047;-68
2021/01/22 03:03:24;;;;;;;8.40;3.05;;;3.70;99.90;;;;;;4967332;28;20220;-67
2021/01/22 03:05:55;;;;;;;7.32;1.88;;;3.70;99.90;;;;;;4973150;28;20119;-74
2021/01/22 03:08:24;;;;;;;5.93;1.80;;;3.70;99.90;;;;;;4963501;28;20061;-67
2021/01/22 03:10:52;;;;;;;5.60;1.98;;;3.70;99.90;;;;;;4974711;28;20507;-71
2021/01/22 03:13:19;;;;;;;3.55;1.73;;;3.70;99.90;;;;;;4966496;28;21439;-70
2021/01/22 03:15:46;;;;;;;5.10;2.67;;;3.70;99.90;;;;;;4969609;28;20054;-67
2021/01/22 03:18:18;;;;;;;8.48;3.63;;;3.70;99.90;;;;;;4965060;28;20383;-72
2021/01/22 03:20:46;;;;;;;4.30;1.75;;;3.60;99.90;;;;;;4965364;28;20176;-69
2021/01/22 03:23:17;;;;;;;4.18;3.25;;;3.60;99.90;;;;;;4964622;28;20054;-67
2021/01/22 03:25:43;;;;;;;3.60;1.80;;;3.60;99.90;;;;;;4965272;28;20360;-70
2021/01/22 03:28:11;;;;;;;4.20;1.85;;;3.60;99.90;;;;;;4965013;28;20681;-68
2021/01/22 03:30:38;;;;;;;4.68;1.83;;;3.50;99.90;;;;;;4967139;28;20514;-74
2021/01/22 03:33:05;;;;;;;3.08;1.92;;;3.50;99.90;;;;;;4968623;28;20043;-70
2021/01/22 03:35:31;;;;;;;2.22;1.70;;;3.50;99.90;;;;;;4967683;28;20054;-68
2021/01/22 03:37:58;;;;;;;6.10;2.15;;;3.50;99.90;;;;;;4973324;28;20418;-67
2021/01/22 03:40:25;;;;;;;7.55;2.92;;;3.50;99.90;;;;;;4967862;28;20046;-69
2021/01/22 03:42:52;;;;;;;3.50;1.55;;;3.60;99.90;;;;;;4976044;28;20132;-66
2021/01/22 03:45:18;;;;;;;3.42;2.40;;;3.60;99.90;;;;;;4967433;28;20049;-70
2021/01/22 03:47:45;;;;;;;4.75;2.28;;;3.60;99.90;;;;;;4967050;28;20086;-69
2021/01/22 03:50:12;;;;;;;4.15;1.65;;;3.60;99.90;;;;;;4966065;28;20046;-66
2021/01/22 03:52:39;;;;;;;7.07;2.70;;;3.60;99.90;;;;;;4965339;28;20051;-67
2021/01/22 03:55:07;;;;;;;3.88;1.92;;;3.60;99.90;;;;;;4970873;28;20043;-66
2021/01/22 03:57:33;;;;;;;4.72;1.77;;;3.60;99.90;;;;;;4963909;28;20050;-69
2021/01/22 04:00:03;;;;;;;3.72;1.95;;;3.60;99.90;;;;;;4966341;28;20094;-68
2021/01/22 04:02:30;;;;;;;4.97;1.58;;;3.60;99.90;;;;;;4961450;28;20101;-67
2021/01/22 04:04:56;;;;;;;9.02;1.85;;;3.60;99.90;;;;;;4966797;28;20451;-66
2021/01/22 04:07:23;;;;;;;6.82;2.10;;;3.60;99.90;;;;;;4962376;28;20059;-70
2021/01/22 04:09:49;;;;;;;5.10;2.15;;;3.60;99.90;;;;;;4967310;28;20126;-68
2021/01/22 04:12:16;;;;;;;2.35;1.80;;;3.60;99.90;;;;;;4961248;28;20074;-67
2021/01/22 04:14:42;;;;;;;2.20;2.00;;;3.60;99.90;;;;;;4970277;28;20117;-67
2021/01/22 04:17:08;;;;;;;6.85;2.58;;;3.50;99.90;;;;;;4966122;28;20046;-69
2021/01/22 04:19:35;;;;;;;8.25;2.90;;;3.50;99.90;;;;;;4970170;28;20048;-66
2021/01/22 04:22:01;;;;;;;12.95;2.95;;;3.50;99.90;;;;;;4963651;28;20399;-70
2021/01/22 04:24:28;;;;;;;4.88;2.70;;;3.40;99.90;;;;;;4962746;28;20145;-67
2021/01/22 04:26:54;;;;;;;3.08;2.53;;;3.40;99.90;;;;;;4959117;28;20075;-70
2021/01/22 04:29:20;;;;;;;9.02;2.45;;;3.30;99.90;;;;;;4964569;28;20055;-66
2021/01/22 04:31:47;;;;;;;7.85;2.30;;;3.30;99.90;;;;;;4969504;28;20043;-66
2021/01/22 04:34:13;;;;;;;5.13;2.38;;;3.30;99.90;;;;;;4961381;28;20388;-70
2021/01/22 04:36:40;;;;;;;7.65;3.10;;;3.30;99.90;;;;;;4965282;28;20552;-70
2021/01/22 04:39:07;;;;;;;4.95;2.50;;;3.30;99.90;;;;;;4960925;28;20458;-67
2021/01/22 04:41:33;;;;;;;4.65;2.75;;;3.30;99.90;;;;;;4968179;28;20463;-67
2021/01/22 04:44:01;;;;;;;6.68;2.33;;;3.30;99.90;;;;;;4963716;28;20043;-67
2021/01/22 04:46:36;;;;;;;6.93;2.90;;;3.30;99.90;;;;;;4961768;28;20038;-72
2021/01/22 04:49:05;;;;;;;3.15;2.38;;;3.30;99.90;;;;;;4963864;28;20141;-68
2021/01/22 04:51:34;;;;;;;4.80;1.75;;;3.30;99.90;;;;;;4965744;28;20345;-66
2021/01/22 04:54:17;;;;;;;4.57;2.05;;;3.30;99.90;;;;;;4966874;28;20478;-70
2021/01/22 04:56:45;;;;;;;6.00;3.22;;;3.30;99.90;;;;;;4957530;28;20046;-69
2021/01/22 04:59:39;;;;;;;4.20;2.22;;;3.20;99.90;;;;;;4970208;28;20079;-67
2021/01/22 05:02:05;;;;;;;4.18;2.83;;;3.20;99.90;;;;;;4961032;28;20043;-68
2021/01/22 05:04:33;;;;;;;2.90;2.10;;;3.20;99.90;;;;;;4961481;28;20066;-68
2021/01/22 05:07:00;;;;;;;6.55;2.38;;;3.20;99.90;;;;;;4961111;28;20261;-71
2021/01/22 05:09:27;;;;;;;7.15;3.70;;;3.20;99.90;;;;;;4959621;28;20094;-71
2021/01/22 05:11:54;;;;;;;5.15;2.38;;;3.20;99.90;;;;;;4963951;28;20042;-68
2021/01/22 05:14:20;;;;;;;7.45;3.20;;;3.20;99.90;;;;;;4965162;28;20485;-68
2021/01/22 05:17:07;;;;;;;5.75;3.50;;;3.20;99.90;;;;;;4961415;28;20723;-66
2021/01/22 05:19:35;;;;;;;4.60;2.88;;;3.20;99.90;;;;;;4964682;28;20093;-69
2021/01/22 05:22:02;;;;;;;5.57;3.08;;;3.10;99.90;;;;;;4958913;28;20051;-69
2021/01/22 05:24:29;;;;;;;6.43;3.30;;;3.20;99.90;;;;;;4964875;28;20062;-70
2021/01/22 05:27:05;;;;;;;10.75;3.85;;;3.20;99.90;;;;;;4959846;28;20128;-68
2021/01/22 05:30:04;;;;;;;10.65;3.70;;;3.20;99.90;;;;;;4963851;28;20464;-69
2021/01/22 05:32:31;;;;;;;9.88;4.07;;;3.20;99.90;;;;;;4960534;28;20071;-71
2021/01/22 05:34:58;;;;;;;7.82;3.88;;;3.20;99.90;;;;;;4956583;28;20051;-70
2021/01/22 05:37:25;;;;;;;5.65;4.00;;;3.20;99.90;;;;;;4964466;28;20051;-68
2021/01/22 05:40:12;;;;;;;5.55;3.90;;;3.30;99.90;;;;;;4963176;28;20053;-69
2021/01/22 05:42:56;;;;;;;8.50;5.13;;;3.30;99.90;;;;;;4966006;28;20139;-69
2021/01/22 05:45:41;;;;;;;9.13;5.50;;;3.30;99.90;;;;;;4963782;28;20058;-66
2021/01/22 05:48:24;;;;;;;8.32;5.10;;;3.30;99.90;;;;;;4961965;28;20065;-66
2021/01/22 05:50:52;;;;;;;10.27;5.13;;;3.30;99.90;;;;;;4962085;28;20050;-68
2021/01/22 05:53:21;;;;;;;9.63;6.28;;;3.40;99.90;;;;;;4962910;28;20133;-73
2021/01/22 05:56:07;;;;;;;12.10;6.05;;;3.40;99.90;;;;;;4961746;28;20117;-73
2021/01/22 05:58:35;;;;;;;15.45;6.57;;;3.50;99.90;;;;;;4962139;28;20046;-69
2021/01/22 06:01:09;;;;;;;12.68;6.72;;;3.60;99.90;;;;;;4963364;28;20600;-70
2021/01/22 06:03:36;;;;;;;15.93;7.68;;;3.60;99.90;;;;;;4961511;28;20057;-69
2021/01/22 06:06:06;;;;;;;14.07;8.05;;;3.70;99.90;;;;;;4962192;28;20355;-70
2021/01/22 06:08:33;;;;;;;17.33;9.75;;;3.80;99.90;;;;;;4961844;28;20054;-67
2021/01/22 06:11:00;;;;;;;16.02;8.82;;;3.80;99.90;;;;;;4958711;28;20101;-68
2021/01/22 06:13:28;;;;;;;19.92;10.65;;;3.90;99.90;;;;;;4958326;28;20102;-67
2021/01/22 06:15:58;;;;;;;17.60;10.75;;;3.90;99.90;;;;;;4963246;28;20101;-66
2021/01/22 06:18:29;;;;;;;21.08;10.98;;;4.00;99.90;;;;;;4963265;28;20042;-66
2021/01/22 06:21:09;;;;;;;18.85;10.10;;;4.00;99.90;;;;;;4959482;28;20047;-68
2021/01/22 06:23:37;;;;;;;12.77;9.65;;;4.10;99.90;;;;;;4961855;28;20053;-67
2021/01/22 06:26:04;;;;;;;24.13;11.40;;;4.10;99.90;;;;;;4961563;28;20816;-69
2021/01/22 06:28:32;;;;;;;12.55;10.30;;;4.20;99.90;;;;;;4958606;28;20700;-66
2021/01/22 06:30:59;;;;;;;20.35;11.32;;;4.20;99.90;;;;;;4961464;28;20054;-67
2021/01/22 06:33:26;;;;;;;17.52;10.35;;;4.20;99.90;;;;;;4961552;28;20042;-68
2021/01/22 06:35:55;;;;;;;17.05;10.63;;;4.30;99.90;;;;;;4961214;28;20051;-66
2021/01/22 06:38:23;;;;;;;20.15;11.68;;;4.30;99.90;;;;;;4959680;28;20066;-68
2021/01/22 06:40:51;;;;;;;14.75;12.00;;;4.30;99.90;;;;;;4965572;28;20058;-72
2021/01/22 06:43:19;;;;;;;20.08;11.73;;;4.30;99.90;;;;;;4960802;28;20178;-70
2021/01/22 06:45:45;;;;;;;15.15;11.48;;;4.20;99.90;;;;;;4968565;28;20047;-68
2021/01/22 06:48:12;;;;;;;16.17;10.32;;;4.30;99.90;;;;;;4960013;28;20054;-66
2021/01/22 06:50:39;;;;;;;16.27;11.70;;;4.30;99.90;;;;;;4970621;28;20057;-68
2021/01/22 06:53:14;;;;;;;19.83;12.80;;;4.30;99.90;;;;;;4959111;28;20751;-68
2021/01/22 06:55:50;;;;;;;17.48;13.18;;;4.30;99.90;;;;;;4965468;28;20398;-67
2021/01/22 06:58:28;;;;;;;20.60;14.20;;;4.30;99.90;;;;;;4960031;28;20046;-68
2021/01/22 07:00:57;;;;;;;26.17;14.35;;;4.40;99.90;;;;;;4963231;28;20375;-67
2021/01/22 07:03:35;;;;;;;18.63;13.90;;;4.40;99.90;;;;;;4959940;28;20047;-72
2021/01/22 07:06:31;;;;;;;23.85;14.23;;;4.40;99.90;;;;;;4967406;28;20050;-68
2021/01/22 07:08:59;;;;;;;20.58;15.00;;;4.40;99.90;;;;;;4958163;28;20113;-66
2021/01/22 07:11:26;;;;;;;30.40;17.10;;;4.40;99.90;;;;;;4968208;28;20098;-69
2021/01/22 07:13:52;;;;;;;19.88;13.32;;;4.40;99.90;;;;;;4960895;28;20051;-71
2021/01/22 07:16:19;;;;;;;25.73;17.52;;;4.40;99.90;;;;;;4960683;28;20542;-68
2021/01/22 07:18:52;;;;;;;28.52;16.27;;;4.40;99.90;;;;;;4961832;28;20046;-74
2021/01/22 07:21:29;;;;;;;27.15;15.88;;;4.50;99.90;;;;;;4963709;28;20437;-69
2021/01/22 07:24:04;;;;;;;21.75;15.48;;;4.50;99.90;;;;;;4963980;28;20062;-66
2021/01/22 07:26:44;;;;;;;28.35;19.20;;;4.50;99.90;;;;;;4964669;28;20117;-70
2021/01/22 07:29:24;;;;;;;25.13;17.00;;;4.50;99.90;;;;;;4967840;28;20053;-66
2021/01/22 07:31:57;;;;;;;24.52;16.88;;;4.50;99.90;;;;;;4964522;28;20050;-66
2021/01/22 07:34:50;;;;;;;27.38;18.90;;;4.50;99.90;;;;;;4964691;28;20595;-70
2021/01/22 07:37:22;;;;;;;29.48;16.88;;;4.50;99.90;;;;;;4965564;28;20138;-66
2021/01/22 07:39:51;;;;;;;30.75;17.20;;;4.50;99.90;;;;;;4964352;28;20046;-70
2021/01/22 07:42:23;;;;;;;29.58;20.08;;;4.50;99.90;;;;;;4966378;28;20055;-70
2021/01/22 07:44:54;;;;;;;29.40;18.27;;;4.50;99.90;;;;;;4971436;28;20055;-67
2021/01/22 07:47:23;;;;;;;;;;;4.50;99.90;;;;;;4965300;28;20415;-67
2021/01/22 07:49:57;;;;;;;25.40;18.60;;;4.50;99.90;;;;;;4967453;28;19933;-67
2021/01/22 07:52:23;;;;;;;28.45;18.42;;;4.50;99.90;;;;;;4963099;28;20065;-68
2021/01/22 07:54:51;;;;;;;25.10;18.23;;;4.60;99.90;;;;;;4967115;28;20050;-67
2021/01/22 07:57:21;;;;;;;23.58;16.63;;;4.60;99.90;;;;;;4961648;28;20046;-72
2021/01/22 07:59:48;;;;;;;;;;;4.60;99.90;;;;;;4971447;28;20084;-68
2021/01/22 08:02:20;;;;;;;27.30;19.33;;;4.60;99.90;;;;;;4962879;28;19933;-71
2021/01/22 08:04:58;;;;;;;24.35;17.30;;;4.70;99.90;;;;;;4965893;28;20050;-67
2021/01/22 08:07:38;;;;;;;29.13;18.33;;;4.60;99.90;;;;;;4961126;28;20089;-66
2021/01/22 08:10:07;;;;;;;27.08;17.77;;;4.70;99.90;;;;;;4970358;28;20050;-67
2021/01/22 08:12:35;;;;;;;31.20;20.33;;;4.70;99.90;;;;;;4963010;28;20497;-73
2021/01/22 08:15:15;;;;;;;29.00;20.15;;;4.70;99.90;;;;;;4965031;28;20129;-66
2021/01/22 08:17:46;;;;;;;25.88;19.50;;;4.70;99.90;;;;;;4961380;28;20043;-70
2021/01/22 08:20:14;;;;;;;30.33;20.55;;;4.70;99.90;;;;;;4963246;28;20062;-68
2021/01/22 08:22:42;;;;;;;30.65;22.08;;;4.70;99.90;;;;;;4965594;28;20469;-67
2021/01/22 08:25:09;;;;;;;30.48;19.50;;;4.70;99.90;;;;;;4965412;28;20055;-68
2021/01/22 08:27:36;;;;;;;34.85;20.70;;;4.70;99.90;;;;;;4953208;28;20066;-67
2021/01/22 08:30:04;;;;;;;30.77;19.63;;;4.80;99.90;;;;;;4963107;28;20442;-67
2021/01/22 08:32:31;;;;;;;33.05;19.33;;;4.80;99.90;;;;;;4968334;28;20858;-66
2021/01/22 08:34:58;;;;;;;25.60;18.95;;;4.80;99.90;;;;;;4963579;28;20045;-68
2021/01/22 08:37:26;;;;;;;28.63;20.38;;;4.90;99.90;;;;;;4967590;28;20532;-73
2021/01/22 08:39:58;;;;;;;30.70;18.92;;;4.90;99.90;;;;;;4963256;28;20051;-69
2021/01/22 08:42:26;;;;;;;28.85;18.65;;;4.90;99.90;;;;;;4968408;28;20052;-69
2021/01/22 08:44:55;;;;;;;33.38;18.33;;;5.00;99.90;;;;;;4962232;28;20038;-70
2021/01/22 08:47:22;;;;;;;31.08;19.50;;;5.00;99.90;;;;;;4962680;28;20439;-67
2021/01/22 08:49:53;;;;;;;27.63;17.40;;;5.00;99.90;;;;;;4962279;28;20415;-70
2021/01/22 08:52:20;;;;;;;29.70;19.77;;;5.00;99.90;;;;;;4962130;28;20161;-67
2021/01/22 08:54:49;;;;;;;29.42;17.65;;;5.10;99.90;;;;;;4970711;28;20047;-68
2021/01/22 08:57:16;;;;;;;27.92;16.23;;;5.10;99.90;;;;;;4963528;28;20043;-67
2021/01/22 08:59:47;;;;;;;22.77;15.43;;;5.20;99.90;;;;;;4968258;28;20098;-69
2021/01/22 09:02:14;;;;;;;26.10;16.20;;;5.20;99.90;;;;;;4961236;28;20403;-70
2021/01/22 09:04:41;;;;;;;23.55;14.93;;;5.30;99.90;;;;;;4967463;28;20121;-69
2021/01/22 09:07:17;;;;;;;28.77;16.52;;;5.30;99.90;;;;;;4964129;28;20096;-71
2021/01/22 09:09:50;;;;;;;25.73;15.80;;;5.30;99.90;;;;;;4962909;28;20462;-69
2021/01/22 09:12:34;;;;;;;20.52;13.63;;;5.40;99.90;;;;;;4961145;28;20495;-69
2021/01/22 09:15:07;;;;;;;24.63;15.23;;;5.40;99.90;;;;;;4966213;28;20134;-67
2021/01/22 09:17:44;;;;;;;20.05;13.63;;;5.40;99.90;;;;;;4961751;28;20050;-67
2021/01/22 09:20:25;;;;;;;19.38;12.85;;;5.50;99.90;;;;;;4963332;28;20058;-67
2021/01/22 09:23:02;;;;;;;18.42;11.88;;;5.50;99.90;;;;;;4960660;28;20122;-68
2021/01/22 09:25:28;;;;;;;24.17;12.55;;;5.50;99.90;;;;;;4963094;28;20656;-68
2021/01/22 09:27:55;;;;;;;15.68;11.27;;;5.60;99.90;;;;;;4961174;28;20192;-70
2021/01/22 09:30:26;;;;;;;28.88;13.25;;;5.60;99.90;;;;;;4967810;28;20055;-67
2021/01/22 09:32:55;;;;;;;18.60;12.40;;;5.60;99.90;;;;;;4961169;28;20054;-69
2021/01/22 09:35:27;;;;;;;16.60;11.15;;;5.70;99.90;;;;;;4961837;28;20054;-67
2021/01/22 09:37:53;;;;;;;17.60;11.38;;;5.70;99.90;;;;;;4960775;28;20124;-74
2021/01/22 09:40:21;;;;;;;13.55;8.75;;;5.80;99.90;;;;;;4972487;28;20069;-68
2021/01/22 09:42:47;;;;;;;17.15;9.68;;;5.90;99.90;;;;;;4960376;28;20042;-68
2021/01/22 09:45:14;;;;;;;16.60;9.10;;;5.90;99.90;;;;;;4962637;28;20566;-72
2021/01/22 09:47:42;;;;;;;13.68;8.23;;;6.00;99.90;;;;;;4963887;28;20065;-68
2021/01/22 09:50:11;;;;;;;12.10;8.27;;;6.00;99.90;;;;;;4959289;28;20061;-68
2021/01/22 09:52:38;;;;;;;13.13;8.13;;;6.10;99.90;;;;;;4966653;28;20918;-73
2021/01/22 09:55:12;;;;;;;16.50;8.55;;;6.10;99.90;;;;;;4962801;28;20043;-68
2021/01/22 09:57:39;;;;;;;11.68;7.43;;;6.20;99.90;;;;;;4962289;28;20153;-70
2021/01/22 10:00:08;;;;;;;14.93;7.82;;;6.30;99.90;;;;;;4962076;28;20121;-67
2021/01/22 10:02:35;;;;;;;12.00;7.28;;;6.30;99.90;;;;;;4962651;28;20114;-67
2021/01/22 10:05:05;;;;;;;10.95;7.43;;;6.40;99.90;;;;;;4960805;28;20166;-72
2021/01/22 10:07:33;;;;;;;9.65;5.78;;;6.40;99.90;;;;;;4961970;28;20058;-70
2021/01/22 10:10:00;;;;;;;12.13;6.32;;;6.40;99.90;;;;;;4962127;28;20344;-68
2021/01/22 10:12:27;;;;;;;11.73;6.80;;;6.50;99.90;;;;;;4961258;28;20610;-67
2021/01/22 10:14:54;;;;;;;6.47;5.65;;;6.50;99.90;;;;;;4962700;28;20054;-67
2021/01/22 10:17:20;;;;;;;10.15;5.10;;;6.60;99.90;;;;;;4965075;28;20105;-66
2021/01/22 10:19:47;;;;;;;7.85;4.75;;;6.70;99.90;;;;;;4962566;28;20043;-69
2021/01/22 10:22:13;;;;;;;8.27;5.90;;;6.80;99.90;;;;;;4957918;28;20051;-67
2021/01/22 10:24:41;;;;;;;8.48;5.10;;;6.80;99.90;;;;;;4964680;28;20117;-67
2021/01/22 10:27:09;;;;;;;6.72;4.35;;;6.90;99.90;;;;;;4961976;28;20125;-70
2021/01/22 10:29:35;;;;;;;7.57;5.15;;;6.90;99.90;;;;;;4964893;28;20034;-66
2021/01/22 10:32:02;;;;;;;9.38;3.90;;;7.00;99.90;;;;;;4961056;28;20047;-66
2021/01/22 10:34:28;;;;;;;7.13;3.88;;;7.10;99.90;;;;;;4966853;28;20584;-67
2021/01/22 10:36:55;;;;;;;8.38;4.65;;;7.10;99.90;;;;;;4961876;28;20487;-69
2021/01/22 10:39:22;;;;;;;6.65;3.80;;;7.20;99.90;;;;;;4960428;28;20459;-67
2021/01/22 10:41:48;;;;;;;6.47;4.07;;;7.20;99.90;;;;;;4961649;28;20043;-73
2021/01/22 10:44:14;;;;;;;7.20;3.72;;;7.20;99.90;;;;;;4961284;28;20047;-69
2021/01/22 10:46:43;;;;;;;7.35;3.60;;;7.30;99.90;;;;;;4965441;28;20058;-68
2021/01/22 10:49:10;;;;;;;5.50;3.40;;;7.40;99.90;;;;;;4962653;28;20177;-66
2021/01/22 10:51:36;;;;;;;4.35;3.75;;;7.40;99.90;;;;;;4964981;28;20054;-71
2021/01/22 10:54:03;;;;;;;6.30;3.42;;;7.50;99.90;;;;;;4960760;28;20039;-71
2021/01/22 10:56:30;;;;;;;7.18;3.20;;;7.50;99.90;;;;;;4966294;28;20047;-69
2021/01/22 10:58:56;;;;;;;9.60;3.97;;;7.60;99.90;;;;;;4965170;28;20046;-67
2021/01/22 11:01:23;;;;;;;5.13;3.78;;;7.70;99.90;;;;;;4962213;28;20114;-71
2021/01/22 11:03:50;;;;;;;7.57;4.05;;;7.70;99.90;;;;;;4964688;28;20055;-69
2021/01/22 11:06:16;;;;;;;5.85;3.53;;;7.70;99.90;;;;;;4968634;28;20055;-67
2021/01/22 11:08:42;;;;;;;8.82;3.80;;;7.70;99.90;;;;;;4964255;28;20051;-66
2021/01/22 11:11:09;;;;;;;11.27;3.45;;;7.80;99.90;;;;;;4966025;28;20058;-69
2021/01/22 11:13:35;;;;;;;7.82;3.60;;;7.80;99.90;;;;;;4970287;28;20047;-72
2021/01/22 11:16:02;;;;;;;7.65;5.38;;;7.90;99.90;;;;;;4966457;28;20138;-67
2021/01/22 11:18:28;;;;;;;8.80;4.43;;;7.90;99.90;;;;;;4966373;28;20061;-69
2021/01/22 11:20:55;;;;;;;4.47;3.42;;;7.90;99.90;;;;;;4965925;28;20054;-70
2021/01/22 11:23:21;;;;;;;6.05;3.75;;;7.90;99.90;;;;;;4969122;28;20063;-66
2021/01/22 11:25:47;;;;;;;8.48;3.70;;;7.90;99.90;;;;;;4964186;28;20050;-66
2021/01/22 11:28:14;;;;;;;6.88;5.18;;;7.90;99.90;;;;;;4961491;28;20069;-71
2021/01/22 11:30:40;;;;;;;4.60;3.38;;;8.00;99.90;;;;;;4963170;28;20062;-70
2021/01/22 11:33:07;;;;;;;8.48;3.83;;;7.90;99.90;;;;;;4975114;28;20466;-68
2021/01/22 11:35:35;;;;;;;8.80;3.58;;;7.90;99.90;;;;;;4965073;28;20046;-69
2021/01/22 11:38:02;;;;;;;4.78;3.67;;;7.90;99.90;;;;;;4967895;28;20572;-69
2021/01/22 11:40:28;;;;;;;4.80;3.05;;;7.90;99.90;;;;;;4968897;28;20546;-70
2021/01/22 11:42:55;;;;;;;8.75;4.00;;;8.00;99.90;;;;;;4960553;28;20463;-66
2021/01/22 11:45:22;;;;;;;6.22;3.60;;;8.00;99.90;;;;;;4963545;28;20047;-70
2021/01/22 11:47:48;;;;;;;7.15;3.60;;;7.90;99.90;;;;;;4964866;28;20130;-70
2021/01/22 11:50:34;;;;;;;9.75;4.05;;;7.80;99.90;;;;;;4963763;28;21686;-69
2021/01/22 11:53:01;;;;;;;10.23;4.35;;;7.80;99.90;;;;;;4961962;28;20503;-68
2021/01/22 11:55:39;;;;;;;5.55;3.55;;;7.70;99.90;;;;;;4964280;28;20642;-73
2021/01/22 11:58:05;;;;;;;6.60;3.95;;;7.50;99.90;;;;;;4963511;28;20043;-67
2021/01/22 12:00:32;;;;;;;8.98;4.72;;;7.40;99.90;;;;;;4963142;28;20047;-69
2021/01/22 12:03:00;;;;;;;5.40;3.75;;;7.30;99.90;;;;;;4961898;28;20117;-73
2021/01/22 12:05:28;;;;;;;10.82;5.00;;;7.30;99.90;;;;;;4968191;28;20058;-66
2021/01/22 12:07:55;;;;;;;7.97;4.13;;;7.20;99.90;;;;;;4962530;28;20055;-67
2021/01/22 12:10:21;;;;;;;8.75;4.35;;;7.20;99.90;;;;;;4963217;28;20046;-74
2021/01/22 12:12:48;;;;;;;8.93;3.80;;;7.20;99.90;;;;;;4965180;28;20681;-67
2021/01/22 12:15:14;;;;;;;7.68;4.25;;;7.10;99.90;;;;;;4967480;28;20047;-71
2021/01/22 12:17:43;;;;;;;10.18;5.50;;;7.10;99.90;;;;;;4964451;28;20051;-72
2021/01/22 12:20:10;;;;;;;9.02;4.20;;;7.20;99.90;;;;;;4962081;28;20097;-67
2021/01/22 12:22:36;;;;;;;6.38;5.72;;;7.10;99.90;;;;;;4964518;28;20471;-69
2021/01/22 12:25:03;;;;;;;6.80;4.65;;;7.10;99.90;;;;;;4964231;28;20117;-70
2021/01/22 12:27:30;;;;;;;8.73;4.45;;;7.20;99.90;;;;;;4963957;28;20529;-70
2021/01/22 12:29:57;;;;;;;7.22;4.45;;;7.20;99.90;;;;;;4961067;28;20486;-68
2021/01/22 12:32:23;;;;;;;10.75;5.40;;;7.20;99.90;;;;;;4967626;28;20042;-72
2021/01/22 12:34:52;;;;;;;8.23;4.75;;;7.20;99.90;;;;;;4963310;28;20150;-66
2021/01/22 12:37:19;;;;;;;9.52;4.63;;;7.20;99.90;;;;;;4966859;28;20046;-67
2021/01/22 12:39:45;;;;;;;8.77;4.30;;;7.20;99.90;;;;;;4964810;28;20809;-70
2021/01/22 12:42:12;;;;;;;9.02;4.57;;;7.20;99.90;;;;;;4963633;28;20699;-67
2021/01/22 12:44:38;;;;;;;6.40;4.10;;;7.10;99.90;;;;;;4965007;28;20051;-71
2021/01/22 12:47:05;;;;;;;9.70;4.07;;;7.10;99.90;;;;;;4965548;28;20061;-69
2021/01/22 12:49:31;;;;;;;10.50;4.80;;;7.20;99.90;;;;;;4960703;28;20047;-67
2021/01/22 12:51:58;;;;;;;10.73;5.78;;;7.20;99.90;;;;;;4965393;28;20055;-69
2021/01/22 12:54:24;;;;;;;8.57;4.13;;;7.20;99.90;;;;;;4961955;28;20081;-69
2021/01/22 12:56:51;;;;;;;7.10;3.65;;;7.20;99.90;;;;;;4964711;28;20654;-67
2021/01/22 12:59:17;;;;;;;7.10;4.13;;;7.20;99.90;;;;;;4969211;28;20090;-73
2021/01/22 13:01:43;;;;;;;11.02;5.90;;;7.20;99.90;;;;;;4963793;28;20042;-70